| time (UTC) | temp C | wind direction | speed KPH | gust KPH | rain 1hr cm | rain 24hr cm | rain mn cm | humidity % | barometer mb |
| 20260902114251 | 13 | 326 | 0.0 | 1.6 | 0.00 | 0.00 | 0.00 | 74 | 1016.7 |
| 20260902113249 | 14 | 96 | 1.6 | 1.6 | 0.00 | 0.00 | 0.00 | 72 | 1016.6 |
| 20260902112247 | 14 | 124 | 1.6 | 3.2 | 0.00 | 0.00 | 0.00 | 72 | 1016.7 |
| 20260902111246 | 14 | 132 | 1.6 | 1.6 | 0.00 | 0.00 | 0.00 | 72 | 1016.9 |
| 20260902110245 | 14 | 38 | 0.0 | 0.0 | 0.00 | 0.00 | 0.00 | 72 | 1016.9 |
| 20260902105243 | 14 | 33 | 1.6 | 1.6 | 0.00 | 0.00 | 0.00 | 72 | 1017.0 |
| 20260902104242 | 15 | 173 | 3.2 | 3.2 | 0.00 | 0.00 | 0.00 | 72 | 1017.0 |
| 20260902103240 | 15 | 248 | 1.6 | 1.6 | 0.00 | 0.00 | 0.00 | 72 | 1017.0 |
| 20260902102239 | 15 | 34 | 1.6 | 3.2 | 0.00 | 0.00 | 0.00 | 74 | 1017.1 |
| 20260902101238 | 15 | 310 | 1.6 | 3.2 | 0.00 | 0.00 | 0.00 | 73 | 1017.1 |
| 20260902100236 | 15 | 341 | 1.6 | 1.6 | 0.00 | 0.00 | 0.00 | 74 | 1017.1 |
| 20260902095235 | 15 | 8 | 1.6 | 3.2 | 0.00 | 0.00 | 0.00 | 73 | 1017.1 |
| 20260902094233 | 15 | 238 | 1.6 | 1.6 | 0.00 | 0.00 | 0.00 | 72 | 1017.0 |
| 20260902093232 | 15 | 264 | 1.6 | 3.2 | 0.00 | 0.00 | 0.00 | 72 | 1017.0 |
| 20260902092231 | 15 | 188 | 0.0 | 1.6 | 0.00 | 0.00 | 0.00 | 71 | 1017.0 |
| 20260902091229 | 15 | 342 | 1.6 | 3.2 | 0.00 | 0.00 | 0.00 | 70 | 1017.0 |
| 20260902090228 | 15 | 64 | 1.6 | 1.6 | 0.00 | 0.00 | 0.00 | 70 | 1016.9 |
| 20260902085227 | 15 | 316 | 1.6 | 1.6 | 0.00 | 0.00 | 0.00 | 69 | 1017.0 |
| 20260902084225 | 15 | 285 | 1.6 | 1.6 | 0.00 | 0.00 | 0.00 | 68 | 1017.1 |
| 20260902083224 | 16 | 246 | 1.6 | 3.2 | 0.00 | 0.00 | 0.00 | 69 | 1017.1 |
| 20260902082222 | 16 | 29 | 1.6 | 3.2 | 0.00 | 0.00 | 0.00 | 68 | 1017.1 |
| 20260902081221 | 16 | 89 | 1.6 | 3.2 | 0.00 | 0.00 | 0.00 | 67 | 1017.1 |
| 20260902080220 | 16 | 164 | 1.6 | 3.2 | 0.00 | 0.00 | 0.00 | 66 | 1017.1 |
| 20260902075218 | 17 | 62 | 1.6 | 1.6 | 0.00 | 0.00 | 0.00 | 70 | 1017.0 |
| 20260902074217 | 17 | 96 | 0.0 | 1.6 | 0.00 | 0.00 | 0.00 | 68 | 1016.9 |
| 20260902073215 | 17 | 49 | 1.6 | 1.6 | 0.00 | 0.00 | 0.00 | 69 | 1016.9 |
| 20260902072214 | 17 | 317 | 1.6 | 1.6 | 0.00 | 0.00 | 0.00 | 65 | 1016.5 |
| 20260902071212 | 17 | 252 | 1.6 | 1.6 | 0.00 | 0.00 | 0.00 | 65 | 1016.4 |
| 20260902070211 | 17 | 1 | 1.6 | 3.2 | 0.00 | 0.00 | 0.00 | 64 | 1016.3 |
| 20260902065210 | 17 | 350 | 0.0 | 1.6 | 0.00 | 0.00 | 0.00 | 62 | 1016.3 |
| 20260902064208 | 17 | 317 | 1.6 | 1.6 | 0.00 | 0.00 | 0.00 | 62 | 1016.3 |
| 20260902063207 | 18 | 275 | 1.6 | 1.6 | 0.00 | 0.00 | 0.00 | 62 | 1016.4 |
| 20260902062206 | 18 | 358 | 1.6 | 1.6 | 0.00 | 0.00 | 0.00 | 60 | 1016.3 |
| 20260902061204 | 18 | 318 | 1.6 | 1.6 | 0.00 | 0.00 | 0.00 | 61 | 1016.2 |
| 20260902060203 | 19 | 261 | 0.0 | 1.6 | 0.00 | 0.00 | 0.00 | 59 | 1016.1 |
| 20260902055201 | 20 | 349 | 3.2 | 3.2 | 0.00 | 0.00 | 0.00 | 61 | 1016.2 |
| 20260902054200 | 20 | 24 | 4.8 | 6.4 | 0.00 | 0.00 | 0.00 | 61 | 1016.2 |
| 20260902053158 | 20 | 43 | 3.2 | 4.8 | 0.00 | 0.00 | 0.00 | 59 | 1016.2 |
| 20260902052156 | 20 | 30 | 4.8 | 4.8 | 0.00 | 0.00 | 0.00 | 59 | 1016.2 |
| 20260902051154 | 20 | 350 | 3.2 | 3.2 | 0.00 | 0.00 | 0.00 | 58 | 1016.2 |
| 20260902050152 | 20 | 4 | 1.6 | 3.2 | 0.00 | 0.00 | 0.00 | 57 | 1016.1 |
| 20260902045150 | 20 | 335 | 3.2 | 3.2 | 0.00 | 0.00 | 0.00 | 57 | 1016.1 |
| 20260902044149 | 21 | 21 | 4.8 | 4.8 | 0.00 | 0.00 | 0.00 | 57 | 1016.0 |
| 20260902043147 | 21 | 28 | 3.2 | 4.8 | 0.00 | 0.00 | 0.00 | 57 | 1015.9 |
| 20260902042145 | 21 | 5 | 4.8 | 4.8 | 0.00 | 0.00 | 0.00 | 56 | 1015.6 |
| 20260902041143 | 21 | 34 | 3.2 | 4.8 | 0.00 | 0.00 | 0.00 | 55 | 1015.5 |
| 20260902040141 | 21 | 33 | 3.2 | 3.2 | 0.00 | 0.00 | 0.00 | 51 | 1015.3 |
| 20260902035140 | 22 | 10 | 1.6 | 3.2 | 0.00 | 0.00 | 0.00 | 46 | 1015.0 |
| 20260902034138 | 22 | 305 | 1.6 | 1.6 | 0.00 | 0.00 | 0.00 | 47 | 1015.0 |
| 20260902033137 | 22 | 52 | 3.2 | 3.2 | 0.00 | 0.00 | 0.00 | 47 | 1014.8 |
| 20260902032135 | 22 | 340 | 3.2 | 4.8 | 0.00 | 0.00 | 0.00 | 47 | 1014.6 |
| 20260902031134 | 22 | 64 | 3.2 | 3.2 | 0.00 | 0.00 | 0.00 | 48 | 1014.5 |
| 20260902030132 | 23 | 31 | 3.2 | 3.2 | 0.00 | 0.00 | 0.00 | 48 | 1014.4 |
| 20260902025131 | 23 | 345 | 3.2 | 3.2 | 0.00 | 0.00 | 0.00 | 47 | 1014.4 |
| 20260902024129 | 23 | 21 | 6.4 | 8.0 | 0.00 | 0.00 | 0.00 | 47 | 1014.4 |
| 20260902023128 | 24 | 302 | 3.2 | 6.4 | 0.00 | 0.00 | 0.00 | 45 | 1014.1 |
| 20260902022126 | 25 | 313 | 6.4 | 9.7 | 0.00 | 0.00 | 0.00 | 43 | 1014.1 |
| 20260902021125 | 25 | 324 | 4.8 | 6.4 | 0.00 | 0.00 | 0.00 | 42 | 1014.1 |
| 20260902020123 | 26 | 313 | 3.2 | 6.4 | 0.00 | 0.00 | 0.00 | 41 | 1014.0 |
| 20260902015122 | 26 | 325 | 4.8 | 9.7 | 0.00 | 0.00 | 0.00 | 39 | 1013.9 |
| 20260902014121 | 26 | 308 | 8.0 | 14.5 | 0.00 | 0.00 | 0.00 | 36 | 1013.8 |
| 20260902013120 | 27 | 307 | 4.8 | 9.7 | 0.00 | 0.00 | 0.00 | 33 | 1013.7 |
| 20260902012117 | 27 | 327 | 8.0 | 11.3 | 0.00 | 0.00 | 0.00 | 33 | 1013.7 |
| 20260902011116 | 27 | 293 | 6.4 | 16.1 | 0.00 | 0.00 | 0.00 | 33 | 1013.6 |
| 20260902010115 | 28 | 296 | 9.7 | 16.1 | 0.00 | 0.00 | 0.00 | 31 | 1013.6 |
| 20260902005113 | 28 | 303 | 6.4 | 12.9 | 0.00 | 0.00 | 0.00 | 28 | 1013.5 |
| 20260902004112 | 28 | 321 | 11.3 | 17.7 | 0.00 | 0.00 | 0.00 | 27 | 1013.5 |
| 20260902003111 | 28 | 288 | 8.0 | 14.5 | 0.00 | 0.00 | 0.00 | 28 | 1013.6 |
| 20260902002109 | 28 | 311 | 11.3 | 17.7 | 0.00 | 0.00 | 0.00 | 28 | 1013.6 |
| 20260902001108 | 28 | 298 | 11.3 | 16.1 | 0.00 | 0.00 | 0.00 | 25 | 1013.5 |
| 20260902000106 | 29 | 301 | 11.3 | 17.7 | 0.00 | 0.00 | 0.00 | 23 | 1013.4 |
| 20260901235105 | 29 | 300 | 14.5 | 20.9 | 0.00 | 0.00 | 0.00 | 23 | 1013.4 |
| 20260901234103 | 29 | 320 | 8.0 | 12.9 | 0.00 | 0.00 | 0.00 | 23 | 1013.4 |
| 20260901233102 | 29 | 294 | 8.0 | 14.5 | 0.00 | 0.00 | 0.00 | 24 | 1013.4 |
| 20260901232101 | 29 | 297 | 8.0 | 14.5 | 0.00 | 0.00 | 0.00 | 22 | 1013.4 |
| 20260901231059 | 29 | 339 | 6.4 | 14.5 | 0.00 | 0.00 | 0.00 | 24 | 1013.5 |
| 20260901230057 | 29 | 280 | 14.5 | 20.9 | 0.00 | 0.00 | 0.00 | 24 | 1013.4 |
| 20260901225055 | 29 | 324 | 8.0 | 14.5 | 0.00 | 0.00 | 0.00 | 25 | 1013.4 |
| 20260901224054 | 30 | 270 | 16.1 | 20.9 | 0.00 | 0.00 | 0.00 | 28 | 1013.7 |
| 20260901223053 | 30 | 285 | 14.5 | 20.9 | 0.00 | 0.00 | 0.00 | 28 | 1013.7 |
| 20260901222051 | 30 | 277 | 14.5 | 20.9 | 0.00 | 0.00 | 0.00 | 28 | 1013.7 |
| 20260901221050 | 30 | 278 | 17.7 | 22.5 | 0.00 | 0.00 | 0.00 | 29 | 1013.8 |
| 20260901220048 | 30 | 289 | 14.5 | 20.9 | 0.00 | 0.00 | 0.00 | 27 | 1013.8 |
| 20260901215047 | 30 | 290 | 8.0 | 11.3 | 0.00 | 0.00 | 0.00 | 27 | 1013.9 |
| 20260901214045 | 30 | 313 | 6.4 | 9.7 | 0.00 | 0.00 | 0.00 | 27 | 1014.1 |
| 20260901213044 | 30 | 282 | 11.3 | 20.9 | 0.00 | 0.00 | 0.00 | 29 | 1014.3 |
| 20260901212043 | 30 | 279 | 12.9 | 19.3 | 0.00 | 0.00 | 0.00 | 29 | 1014.3 |
| 20260901211041 | 30 | 311 | 8.0 | 12.9 | 0.00 | 0.00 | 0.00 | 27 | 1014.3 |
| 20260901210040 | 29 | 284 | 12.9 | 16.1 | 0.00 | 0.00 | 0.00 | 30 | 1014.5 |
| 20260901205038 | 30 | 300 | 8.0 | 11.3 | 0.00 | 0.00 | 0.00 | 32 | 1014.6 |
| 20260901204036 | 29 | 321 | 8.0 | 11.3 | 0.00 | 0.00 | 0.00 | 32 | 1014.6 |
| 20260901203034 | 29 | 307 | 6.4 | 9.7 | 0.00 | 0.00 | 0.00 | 34 | 1014.7 |
| 20260901202033 | 29 | 10 | 3.2 | 6.4 | 0.00 | 0.00 | 0.00 | 34 | 1014.9 |
| 20260901201032 | 29 | 331 | 4.8 | 8.0 | 0.00 | 0.00 | 0.00 | 35 | 1015.1 |
| 20260901200030 | 28 | 25 | 4.8 | 6.4 | 0.00 | 0.00 | 0.00 | 37 | 1015.2 |
| 20260901195028 | 28 | 273 | 4.8 | 8.0 | 0.00 | 0.00 | 0.00 | 37 | 1015.3 |
| 20260901194027 | 27 | 29 | 6.4 | 9.7 | 0.00 | 0.00 | 0.00 | 35 | 1015.4 |
| 20260901193025 | 27 | 296 | 6.4 | 11.3 | 0.00 | 0.00 | 0.00 | 34 | 1015.5 |
| 20260901192023 | 27 | 23 | 3.2 | 4.8 | 0.00 | 0.00 | 0.00 | 31 | 1015.5 |
| 20260901191022 | 27 | 293 | 8.0 | 12.9 | 0.00 | 0.00 | 0.00 | 31 | 1015.5 |
| 20260901190020 | 26 | 309 | 4.8 | 9.7 | 0.00 | 0.00 | 0.00 | 38 | 1015.8 |
| 20260901185019 | 26 | 303 | 8.0 | 11.3 | 0.00 | 0.00 | 0.00 | 40 | 1015.8 |
| 20260901184017 | 26 | 291 | 8.0 | 9.7 | 0.00 | 0.00 | 0.00 | 44 | 1015.9 |
| 20260901183016 | 26 | 310 | 6.4 | 8.0 | 0.00 | 0.00 | 0.00 | 48 | 1016.1 |
| 20260901182014 | 26 | 295 | 6.4 | 9.7 | 0.00 | 0.00 | 0.00 | 49 | 1016.2 |
| 20260901181013 | 25 | 30 | 4.8 | 8.0 | 0.00 | 0.00 | 0.00 | 50 | 1016.2 |
| 20260901180011 | 25 | 333 | 4.8 | 9.7 | 0.00 | 0.00 | 0.00 | 51 | 1016.4 |
| 20260901175010 | 25 | 5 | 3.2 | 4.8 | 0.00 | 0.00 | 0.00 | 51 | 1016.4 |
| 20260901174008 | 24 | 116 | 1.6 | 3.2 | 0.00 | 0.00 | 0.00 | 51 | 1016.4 |
| 20260901173007 | 23 | 282 | 6.4 | 11.3 | 0.00 | 0.00 | 0.00 | 54 | 1016.4 |
| 20260901172006 | 23 | 332 | 1.6 | 3.2 | 0.00 | 0.00 | 0.00 | 54 | 1016.4 |
| 20260901171004 | 23 | 338 | 3.2 | 4.8 | 0.00 | 0.00 | 0.00 | 55 | 1016.4 |
| 20260901170003 | 23 | 184 | 0.0 | 1.6 | 0.00 | 0.00 | 0.00 | 55 | 1016.4 |
| 20260901165001 | 21 | 6 | 3.2 | 6.4 | 0.00 | 0.00 | 0.00 | 61 | 1016.5 |
| 20260901163959 | 21 | 311 | 4.8 | 6.4 | 0.00 | 0.00 | 0.00 | 64 | 1016.5 |
| 20260901162958 | 21 | 330 | 3.2 | 6.4 | 0.00 | 0.00 | 0.00 | 65 | 1016.4 |
| 20260901161957 | 21 | 275 | 6.4 | 8.0 | 0.00 | 0.00 | 0.00 | 68 | 1016.5 |
| 20260901160955 | 21 | 303 | 1.6 | 1.6 | 0.00 | 0.00 | 0.00 | 67 | 1016.5 |
| 20260901155954 | 20 | 285 | 3.2 | 4.8 | 0.00 | 0.00 | 0.00 | 68 | 1016.5 |
| 20260901154953 | 20 | 359 | 3.2 | 3.2 | 0.00 | 0.00 | 0.00 | 70 | 1016.5 |
| 20260901153951 | 20 | 295 | 4.8 | 4.8 | 0.00 | 0.00 | 0.00 | 72 | 1016.6 |
| 20260901152950 | 19 | 296 | 4.8 | 6.4 | 0.00 | 0.00 | 0.00 | 72 | 1016.5 |
| 20260901151949 | 19 | 295 | 3.2 | 4.8 | 0.00 | 0.00 | 0.00 | 72 | 1016.5 |
| 20260901150948 | 19 | 311 | 3.2 | 3.2 | 0.00 | 0.00 | 0.00 | 71 | 1016.4 |
| 20260901145947 | 19 | 277 | 3.2 | 4.8 | 0.00 | 0.00 | 0.00 | 70 | 1016.4 |
| 20260901144945 | 20 | 346 | 3.2 | 3.2 | 0.00 | 0.00 | 0.00 | 67 | 1016.4 |
| 20260901143944 | 18 | 252 | 0.0 | 1.6 | 0.00 | 0.00 | 0.00 | 67 | 1016.4 |
| 20260901142942 | 18 | 278 | 1.6 | 1.6 | 0.00 | 0.00 | 0.00 | 69 | 1016.3 |
| 20260901141941 | 17 | 0 | 1.6 | 3.2 | 0.00 | 0.00 | 0.00 | 72 | 1016.2 |
| 20260901140940 | 16 | 0 | 0.0 | 0.0 | 0.00 | 0.00 | 0.00 | 76 | 1016.2 |
| 20260901135938 | 15 | 349 | 0.0 | 1.6 | 0.00 | 0.00 | 0.00 | 78 | 1016.1 |
| 20260901134937 | 14 | 248 | 0.0 | 0.0 | 0.00 | 0.00 | 0.00 | 79 | 1016.0 |
| 20260901133935 | 14 | 201 | 1.6 | 3.2 | 0.00 | 0.00 | 0.00 | 79 | 1015.9 |
| 20260901132934 | 14 | 329 | 1.6 | 1.6 | 0.00 | 0.00 | 0.00 | 79 | 1015.8 |
| 20260901131933 | 15 | 62 | 0.0 | 1.6 | 0.00 | 0.00 | 0.00 | 78 | 1015.7 |
| 20260901130931 | 14 | 52 | 0.0 | 1.6 | 0.00 | 0.00 | 0.00 | 77 | 1015.6 |
| 20260901125930 | 15 | 333 | 0.0 | 3.2 | 0.00 | 0.00 | 0.00 | 77 | 1015.6 |
| 20260901124928 | 15 | 134 | 0.0 | 1.6 | 0.00 | 0.00 | 0.00 | 77 | 1015.6 |
| 20260901123927 | 15 | 112 | 0.0 | 1.6 | 0.00 | 0.00 | 0.00 | 77 | 1015.6 |
| 20260901122925 | 15 | 125 | 0.0 | 0.0 | 0.00 | 0.00 | 0.00 | 76 | 1015.6 |
| 20260901121924 | 15 | 214 | 1.6 | 1.6 | 0.00 | 0.00 | 0.00 | 76 | 1015.6 |
| 20260901120923 | 15 | 211 | 0.0 | 1.6 | 0.00 | 0.00 | 0.00 | 76 | 1015.6 |
| 20260901115921 | 15 | 85 | 0.0 | 0.0 | 0.00 | 0.00 | 0.00 | 75 | 1015.6 |
| 20260901114919 | 15 | 265 | 0.0 | 1.6 | 0.00 | 0.00 | 0.00 | 75 | 1015.6 |